Time;durP1;ratioP1;P1;durP2;ratioP2;P2;SDS_P1;SDS_P2;PMS_P1;PMS_P2;Temp;Humidity;BMP_temperature;BMP_pressure;BME280_temperature;BME280_humidity;BME280_pressure;Samples;Min_cycle;Max_cycle;Signal;HPM_P1;HPM_P2
2022/04/09 00:00:26;;;;;;;9.50;2.33;;;3.20;99.90;;;;;;5053827;28;20047;-77
2022/04/09 00:02:52;;;;;;;8.48;1.95;;;3.20;99.90;;;;;;5020662;28;20098;-77
2022/04/09 00:05:17;;;;;;;7.80;2.13;;;3.10;99.90;;;;;;5019826;28;20048;-77
2022/04/09 00:07:57;;;;;;;9.02;2.58;;;3.10;99.90;;;;;;5035845;28;20052;-78
2022/04/09 00:10:29;;;;;;;13.45;2.55;;;3.00;99.90;;;;;;5037249;28;20037;-77
2022/04/09 00:13:00;;;;;;;8.13;2.33;;;3.00;99.90;;;;;;5035786;28;20044;-77
2022/04/09 00:15:37;;;;;;;6.10;2.70;;;3.10;99.90;;;;;;5037627;28;20132;-78
2022/04/09 00:18:17;;;;;;;8.18;2.35;;;3.00;99.90;;;;;;5037315;28;20271;-77
2022/04/09 00:20:46;;;;;;;11.25;2.17;;;3.10;99.90;;;;;;5036556;28;20037;-78
2022/04/09 00:23:13;;;;;;;8.50;2.33;;;3.10;99.90;;;;;;5036563;28;20063;-78
2022/04/09 00:26:07;;;;;;;11.30;2.03;;;3.00;99.90;;;;;;5019495;28;20124;-78
2022/04/09 00:28:38;;;;;;;8.65;2.65;;;3.00;99.90;;;;;;5016803;28;20123;-77
2022/04/09 00:31:04;;;;;;;9.00;2.42;;;3.00;99.90;;;;;;5033623;28;20036;-77
2022/04/09 00:33:32;;;;;;;10.88;2.70;;;3.00;99.90;;;;;;5016677;28;20517;-77
2022/04/09 00:35:58;;;;;;;8.93;2.50;;;3.00;99.90;;;;;;5026151;28;20029;-77
2022/04/09 00:38:29;;;;;;;9.95;2.60;;;3.00;99.90;;;;;;5018256;28;20033;-77
2022/04/09 00:40:58;;;;;;;8.13;2.42;;;3.00;99.90;;;;;;5036028;28;20491;-77
2022/04/09 00:43:29;;;;;;;7.88;2.60;;;3.00;99.90;;;;;;5036650;28;20041;-77
2022/04/09 00:45:58;;;;;;;8.05;2.30;;;3.10;99.90;;;;;;5035747;28;20045;-77
2022/04/09 00:48:29;;;;;;;11.10;2.70;;;3.20;99.90;;;;;;5037011;28;20039;-77
2022/04/09 00:51:14;;;;;;;7.10;2.08;;;3.30;99.90;;;;;;5038075;28;20052;-78
2022/04/09 00:53:54;;;;;;;6.50;2.30;;;3.40;99.90;;;;;;5024997;28;20044;-78
2022/04/09 00:56:35;;;;;;;7.90;2.10;;;3.50;99.90;;;;;;5041222;28;20041;-78
2022/04/09 00:59:30;;;;;;;7.00;1.80;;;3.50;99.90;;;;;;5023215;28;20052;-77
2022/04/09 01:02:13;;;;;;;5.72;2.05;;;3.60;99.90;;;;;;5025301;28;20049;-78
2022/04/09 01:04:47;;;;;;;6.55;1.70;;;3.50;99.90;;;;;;5018986;28;20033;-78
2022/04/09 01:07:21;;;;;;;7.68;1.77;;;3.50;99.90;;;;;;5039772;28;20090;-77
2022/04/09 01:09:50;;;;;;;6.70;1.60;;;3.40;99.90;;;;;;5049190;28;20063;-77
2022/04/09 01:12:33;;;;;;;7.70;2.00;;;3.40;99.90;;;;;;5046323;28;20106;-77
2022/04/09 01:15:08;;;;;;;6.18;2.05;;;3.30;99.90;;;;;;5049563;28;20051;-77
2022/04/09 01:17:44;;;;;;;6.13;1.65;;;3.40;99.90;;;;;;5048493;28;20044;-77
2022/04/09 01:20:39;;;;;;;4.47;1.50;;;3.40;99.90;;;;;;5042415;28;20037;-79
2022/04/09 01:23:15;;;;;;;5.28;1.83;;;3.50;99.90;;;;;;5023673;28;20107;-79
2022/04/09 01:26:00;;;;;;;8.20;2.17;;;3.60;99.90;;;;;;5021819;28;20033;-79
2022/04/09 01:28:35;;;;;;;6.90;2.40;;;3.70;99.90;;;;;;5020989;28;20055;-78
2022/04/09 01:31:02;;;;;;;6.97;1.92;;;3.50;99.90;;;;;;5038742;28;20095;-78
2022/04/09 01:33:31;;;;;;;7.72;1.70;;;3.50;99.90;;;;;;5039239;28;20534;-78
2022/04/09 01:36:00;;;;;;;7.60;1.70;;;3.40;99.90;;;;;;5036884;28;20036;-78
2022/04/09 01:38:26;;;;;;;7.28;1.90;;;3.40;99.90;;;;;;5020038;28;20475;-78
2022/04/09 01:40:55;;;;;;;7.78;2.00;;;3.30;99.90;;;;;;5020774;28;20044;-78
2022/04/09 01:43:27;;;;;;;5.05;1.92;;;3.20;99.90;;;;;;5020849;28;20507;-78
2022/04/09 01:45:56;;;;;;;6.93;1.77;;;3.10;99.90;;;;;;5021298;28;20467;-77
2022/04/09 01:48:30;;;;;;;8.43;1.77;;;3.10;99.90;;;;;;5030309;28;20101;-78
2022/04/09 01:51:02;;;;;;;8.13;2.10;;;3.10;99.90;;;;;;5042109;28;20049;-79
2022/04/09 01:53:52;;;;;;;6.63;2.25;;;3.20;99.90;;;;;;5042350;28;20036;-79
2022/04/09 01:56:42;;;;;;;7.35;1.80;;;3.30;99.90;;;;;;5038649;28;20447;-78
2022/04/09 01:59:20;;;;;;;7.95;1.70;;;3.50;99.90;;;;;;5020139;28;20075;-78
2022/04/09 02:01:49;;;;;;;11.57;2.08;;;3.50;99.90;;;;;;5026930;28;20037;-78
2022/04/09 02:04:25;;;;;;;8.75;2.00;;;3.50;99.90;;;;;;5040572;28;20578;-78
2022/04/09 02:07:06;;;;;;;6.00;1.92;;;3.40;99.90;;;;;;5039542;28;20040;-78
2022/04/09 02:09:41;;;;;;;5.50;1.80;;;3.50;99.90;;;;;;5039999;28;20036;-78
2022/04/09 02:12:13;;;;;;;6.53;1.70;;;3.50;99.90;;;;;;5040898;28;20094;-78
2022/04/09 02:14:48;;;;;;;7.13;2.00;;;3.40;99.90;;;;;;5038977;28;20041;-78
2022/04/09 02:17:19;;;;;;;6.75;1.58;;;3.40;99.90;;;;;;5036669;28;20067;-78
2022/04/09 02:19:51;;;;;;;6.85;1.77;;;3.40;99.90;;;;;;5018742;28;20056;-78
2022/04/09 02:22:20;;;;;;;5.88;2.13;;;3.30;99.90;;;;;;5020035;28;20033;-77
2022/04/09 02:24:50;;;;;;;12.60;2.30;;;3.50;99.90;;;;;;5019901;28;20044;-77
2022/04/09 02:27:29;;;;;;;8.40;1.77;;;3.40;99.90;;;;;;5019850;28;20041;-77
2022/04/09 02:30:00;;;;;;;4.45;1.60;;;3.40;99.90;;;;;;5031215;28;20037;-77
2022/04/09 02:32:43;;;;;;;9.50;1.95;;;3.20;99.90;;;;;;5036905;28;20106;-77
2022/04/09 02:35:16;;;;;;;6.53;2.10;;;3.20;99.90;;;;;;5039344;28;20399;-78
2022/04/09 02:37:56;;;;;;;8.18;3.72;;;3.10;99.90;;;;;;5038445;28;20040;-78
2022/04/09 02:40:25;;;;;;;7.18;2.63;;;3.00;99.90;;;;;;5034865;28;20049;-78
2022/04/09 02:43:31;;;;;;;9.05;2.42;;;2.90;99.90;;;;;;5048186;28;20514;-78
2022/04/09 02:45:57;;;;;;;7.38;1.73;;;2.70;99.90;;;;;;5018745;28;20135;-78
2022/04/09 02:48:41;;;;;;;14.45;2.10;;;2.60;99.90;;;;;;5019389;28;20055;-78
2022/04/09 02:51:13;;;;;;;9.70;1.90;;;2.50;99.90;;;;;;5020372;28;20090;-78
2022/04/09 02:53:39;;;;;;;8.27;2.00;;;2.40;99.90;;;;;;5038883;28;20102;-78
2022/04/09 02:56:08;;;;;;;9.07;1.98;;;2.30;99.90;;;;;;5036854;28;20521;-78
2022/04/09 02:58:37;;;;;;;5.13;1.77;;;2.30;99.90;;;;;;5036617;28;20036;-78
2022/04/09 03:01:12;;;;;;;8.77;1.73;;;2.30;99.90;;;;;;5038753;28;20131;-78
2022/04/09 03:03:41;;;;;;;6.15;1.80;;;2.30;99.90;;;;;;5018195;28;20045;-78
2022/04/09 03:06:21;;;;;;;7.88;1.75;;;2.10;99.90;;;;;;5028463;28;20037;-78
2022/04/09 03:08:47;;;;;;;9.02;2.00;;;2.20;99.90;;;;;;5048792;28;20135;-78
2022/04/09 03:11:31;;;;;;;6.75;2.15;;;2.10;99.90;;;;;;5038191;28;20102;-78
2022/04/09 03:14:06;;;;;;;11.10;2.65;;;2.30;99.90;;;;;;5037868;28;20082;-78
2022/04/09 03:16:32;;;;;;;7.88;2.13;;;2.40;99.90;;;;;;5020510;28;20099;-77
2022/04/09 03:19:10;;;;;;;12.20;3.15;;;2.60;99.90;;;;;;5052673;28;20101;-77
2022/04/09 03:21:42;;;;;;;12.13;2.63;;;2.80;99.90;;;;;;5017509;28;20505;-77
2022/04/09 03:24:08;;;;;;;13.60;3.03;;;3.00;99.90;;;;;;5017473;28;20037;-76
2022/04/09 03:26:36;;;;;;;6.93;1.85;;;2.90;99.90;;;;;;5017182;28;20478;-76
2022/04/09 03:29:18;;;;;;;8.10;2.35;;;2.80;99.90;;;;;;5032902;28;20037;-76
2022/04/09 03:31:48;;;;;;;7.72;2.33;;;2.70;99.90;;;;;;5033866;28;20040;-76
2022/04/09 03:34:18;;;;;;;9.35;2.38;;;2.70;99.90;;;;;;5049395;28;20517;-76
2022/04/09 03:36:46;;;;;;;8.50;2.17;;;2.60;99.90;;;;;;5063627;22;20327;-74
2022/04/09 03:39:12;;;;;;;11.23;2.63;;;2.60;99.90;;;;;;5016322;28;20052;-74
2022/04/09 03:41:38;;;;;;;8.88;2.00;;;2.60;99.90;;;;;;5033388;28;20036;-74
2022/04/09 03:44:03;;;;;;;9.55;1.90;;;2.50;99.90;;;;;;5033909;28;20521;-74
2022/04/09 03:46:29;;;;;;;11.02;1.80;;;2.50;99.90;;;;;;5033221;28;20033;-73
2022/04/09 03:48:54;;;;;;;9.38;1.73;;;2.50;99.90;;;;;;5051943;28;20230;-74
2022/04/09 03:51:20;;;;;;;7.45;1.58;;;2.50;99.90;;;;;;5053785;28;20508;-74
2022/04/09 03:53:45;;;;;;;10.15;2.08;;;2.50;99.90;;;;;;5020043;28;20123;-74
2022/04/09 03:56:11;;;;;;;8.20;1.80;;;2.50;99.90;;;;;;5033974;28;20051;-75
2022/04/09 03:58:37;;;;;;;6.05;1.58;;;2.60;99.90;;;;;;5033360;28;20051;-74
2022/04/09 04:01:03;;;;;;;17.63;3.08;;;2.70;99.90;;;;;;5034689;28;20131;-74
2022/04/09 04:03:28;;;;;;;10.30;2.17;;;2.70;99.90;;;;;;5016376;28;20473;-74
2022/04/09 04:05:54;;;;;;;8.23;1.90;;;2.80;99.90;;;;;;5033632;28;20178;-74
2022/04/09 04:08:20;;;;;;;9.20;1.80;;;2.70;99.90;;;;;;5033426;28;20036;-73
2022/04/09 04:10:45;;;;;;;5.32;1.58;;;2.70;99.90;;;;;;5033501;28;20041;-74
2022/04/09 04:13:11;;;;;;;8.10;1.70;;;2.70;99.90;;;;;;5030788;28;20048;-74
2022/04/09 04:15:37;;;;;;;12.23;1.85;;;2.60;99.90;;;;;;5033344;28;20056;-74
2022/04/09 04:18:03;;;;;;;9.43;1.83;;;2.60;99.90;;;;;;5021310;28;20076;-74
2022/04/09 04:20:29;;;;;;;16.73;3.30;;;2.70;99.90;;;;;;4997201;28;20037;-74
2022/04/09 04:22:54;;;;;;;9.07;1.85;;;2.70;99.90;;;;;;5046707;28;20048;-73
2022/04/09 04:25:20;;;;;;;10.43;2.20;;;2.70;99.90;;;;;;5046643;28;20030;-73
2022/04/09 04:27:49;;;;;;;10.45;1.67;;;2.70;99.90;;;;;;5058332;28;20040;-73
2022/04/09 04:30:15;;;;;;;8.38;2.42;;;2.70;99.90;;;;;;5059027;28;20086;-73
2022/04/09 04:32:42;;;;;;;6.68;1.73;;;2.70;99.90;;;;;;5036939;28;20405;-74
2022/04/09 04:35:08;;;;;;;7.28;1.60;;;2.70;99.90;;;;;;5053376;28;20044;-74
2022/04/09 04:37:45;;;;;;;5.20;1.67;;;2.80;99.90;;;;;;5053466;28;20047;-74
2022/04/09 04:40:11;;;;;;;9.75;1.92;;;2.80;99.90;;;;;;5052044;28;20043;-74
2022/04/09 04:42:37;;;;;;;7.65;1.77;;;2.90;99.90;;;;;;5026718;28;20083;-74
2022/04/09 04:45:04;;;;;;;6.55;2.15;;;2.90;99.90;;;;;;5028362;28;20073;-73
2022/04/09 04:47:30;;;;;;;6.10;1.65;;;2.90;99.90;;;;;;5031545;28;20047;-74
2022/04/09 04:49:55;;;;;;;7.97;2.95;;;2.90;99.90;;;;;;5057221;28;20036;-74
2022/04/09 04:52:21;;;;;;;6.63;1.83;;;3.00;99.90;;;;;;5047964;28;20033;-74
2022/04/09 04:54:46;;;;;;;10.38;1.90;;;3.00;99.90;;;;;;5029093;28;20473;-74
2022/04/09 04:57:12;;;;;;;5.78;1.85;;;3.10;99.90;;;;;;5039263;28;20050;-74
2022/04/09 04:59:38;;;;;;;8.18;1.63;;;3.10;99.90;;;;;;5034457;28;20048;-74
2022/04/09 05:02:03;;;;;;;8.65;1.80;;;3.20;99.90;;;;;;5037058;28;20128;-74
2022/04/09 05:04:29;;;;;;;8.48;1.77;;;3.40;99.90;;;;;;5036914;28;20124;-74
2022/04/09 05:06:55;;;;;;;5.32;1.88;;;3.50;99.90;;;;;;5036261;28;20037;-73
2022/04/09 05:09:21;;;;;;;4.70;1.50;;;3.60;99.90;;;;;;5047196;28;20453;-74
2022/04/09 05:11:47;;;;;;;6.88;1.63;;;3.60;99.90;;;;;;5056628;28;20770;-74
2022/04/09 05:14:12;;;;;;;6.60;1.88;;;3.60;99.90;;;;;;5047743;28;20041;-74
2022/04/09 05:16:38;;;;;;;4.13;1.60;;;3.60;99.90;;;;;;5036392;28;20620;-74
2022/04/09 05:19:04;;;;;;;9.57;2.05;;;3.60;99.90;;;;;;5018756;28;20051;-73
2022/04/09 05:21:30;;;;;;;6.75;1.90;;;3.60;99.90;;;;;;5003807;28;20396;-74
2022/04/09 05:23:55;;;;;;;6.50;1.88;;;3.60;99.90;;;;;;5038276;28;20047;-74
2022/04/09 05:26:21;;;;;;;5.05;1.58;;;3.60;99.90;;;;;;5039425;28;20036;-74
2022/04/09 05:28:53;;;;;;;6.75;1.80;;;3.50;99.90;;;;;;5049925;28;20038;-73
2022/04/09 05:31:27;;;;;;;9.30;1.55;;;3.50;99.90;;;;;;5048724;28;20491;-74
2022/04/09 05:33:53;;;;;;;6.07;1.50;;;3.40;99.90;;;;;;5016508;28;20556;-74
2022/04/09 05:36:19;;;;;;;6.68;1.83;;;3.40;99.90;;;;;;5016337;28;20041;-74
2022/04/09 05:38:44;;;;;;;8.68;1.90;;;3.40;99.90;;;;;;5050100;28;20128;-73
2022/04/09 05:41:10;;;;;;;8.88;2.08;;;3.40;99.90;;;;;;5051269;28;20051;-73
2022/04/09 05:43:35;;;;;;;9.00;2.00;;;3.40;99.90;;;;;;5044669;28;20049;-74
2022/04/09 05:46:01;;;;;;;9.88;2.33;;;3.40;99.90;;;;;;5035847;28;20060;-74
2022/04/09 05:48:26;;;;;;;10.38;2.40;;;3.40;99.90;;;;;;5035425;28;20045;-73
2022/04/09 05:50:52;;;;;;;7.00;1.83;;;3.50;99.90;;;;;;5054507;28;20418;-73
2022/04/09 05:53:17;;;;;;;8.60;2.30;;;3.70;99.90;;;;;;5053965;28;20314;-73
2022/04/09 05:55:43;;;;;;;10.95;1.90;;;3.80;99.90;;;;;;5055646;28;20037;-74
2022/04/09 05:58:08;;;;;;;9.80;2.28;;;3.90;99.90;;;;;;5030044;28;20040;-73
2022/04/09 06:00:34;;;;;;;9.32;2.10;;;4.00;99.90;;;;;;5035573;28;20041;-74
2022/04/09 06:03:01;;;;;;;5.97;2.38;;;4.00;99.90;;;;;;5019029;28;20037;-74
2022/04/09 06:05:27;;;;;;;5.50;1.98;;;4.10;99.90;;;;;;5019011;28;20045;-74
2022/04/09 06:07:53;;;;;;;9.23;2.58;;;4.10;99.90;;;;;;5045616;28;20418;-73
2022/04/09 06:10:19;;;;;;;10.65;2.60;;;4.10;99.90;;;;;;5030017;28;20419;-74
2022/04/09 06:12:45;;;;;;;11.38;2.70;;;4.30;99.90;;;;;;5032576;28;20049;-74
2022/04/09 06:15:11;;;;;;;7.60;2.20;;;4.50;99.90;;;;;;5015801;28;20176;-74
2022/04/09 06:17:37;;;;;;;8.48;2.10;;;4.90;99.90;;;;;;5029821;28;20116;-74
2022/04/09 06:20:04;;;;;;;9.15;2.10;;;5.20;99.90;;;;;;5038922;28;20101;-73
2022/04/09 06:22:30;;;;;;;7.68;2.15;;;5.30;99.90;;;;;;5055301;28;20036;-74
2022/04/09 06:24:55;;;;;;;9.13;2.22;;;5.30;99.90;;;;;;5026994;28;20163;-74
2022/04/09 06:27:21;;;;;;;6.45;1.95;;;5.20;99.90;;;;;;5035597;28;20186;-74
2022/04/09 06:29:46;;;;;;;10.48;2.30;;;5.20;99.90;;;;;;5035402;28;20047;-74
2022/04/09 06:32:12;;;;;;;7.07;1.60;;;5.10;99.90;;;;;;5035186;28;20044;-74
2022/04/09 06:34:37;;;;;;;4.93;1.85;;;5.10;99.90;;;;;;5044501;28;20037;-74
2022/04/09 06:37:04;;;;;;;5.85;1.50;;;5.10;99.90;;;;;;5038449;28;20051;-74
2022/04/09 06:39:29;;;;;;;4.97;1.10;;;5.00;99.90;;;;;;5054976;28;20079;-74
2022/04/09 06:41:55;;;;;;;6.72;1.20;;;5.00;99.90;;;;;;5038610;28;20041;-74
2022/04/09 06:44:20;;;;;;;8.55;1.70;;;5.10;99.90;;;;;;5040873;28;20478;-74
2022/04/09 06:46:46;;;;;;;5.55;1.40;;;5.10;99.90;;;;;;5054764;28;20040;-73
2022/04/09 06:49:15;;;;;;;5.43;1.10;;;5.10;99.90;;;;;;5036001;28;20041;-73
2022/04/09 06:51:41;;;;;;;7.07;1.45;;;5.10;99.90;;;;;;5034745;28;20438;-74
2022/04/09 06:54:07;;;;;;;9.13;1.83;;;5.20;99.90;;;;;;5034821;28;20090;-73
2022/04/09 06:56:33;;;;;;;10.23;2.22;;;5.20;99.90;;;;;;5033640;28;20086;-74
2022/04/09 06:59:00;;;;;;;6.68;1.90;;;5.20;99.90;;;;;;5019459;28;20044;-74
2022/04/09 07:01:26;;;;;;;7.82;1.83;;;5.30;99.90;;;;;;5040454;28;20035;-74
2022/04/09 07:03:52;;;;;;;7.65;1.75;;;5.40;99.90;;;;;;5051779;28;20519;-74
2022/04/09 07:06:17;;;;;;;7.55;1.95;;;5.40;99.90;;;;;;5054337;28;20287;-74
2022/04/09 07:08:44;;;;;;;8.30;1.98;;;5.50;99.90;;;;;;5027686;28;20037;-74
2022/04/09 07:11:09;;;;;;;8.98;2.00;;;5.60;99.90;;;;;;5014593;28;20037;-74
2022/04/09 07:13:35;;;;;;;11.27;2.65;;;5.70;99.90;;;;;;5014826;28;20372;-74
2022/04/09 07:16:00;;;;;;;5.35;1.20;;;6.00;99.90;;;;;;5035694;28;20040;-73
2022/04/09 07:18:26;;;;;;;5.63;1.10;;;6.20;99.90;;;;;;5053839;28;20044;-74
2022/04/09 07:20:51;;;;;;;4.57;1.02;;;6.20;99.90;;;;;;5054106;28;20037;-74
2022/04/09 07:23:17;;;;;;;6.57;1.30;;;6.20;99.90;;;;;;5042243;28;20033;-73
2022/04/09 07:25:42;;;;;;;6.63;1.52;;;6.10;99.90;;;;;;5035363;28;20122;-74
2022/04/09 07:28:09;;;;;;;9.20;1.60;;;6.20;99.90;;;;;;5022507;28;20574;-74
2022/04/09 07:30:34;;;;;;;6.78;1.70;;;6.40;99.90;;;;;;5053899;28;20134;-74
2022/04/09 07:33:00;;;;;;;6.40;1.52;;;6.50;99.90;;;;;;5054107;28;20047;-75
2022/04/09 07:35:26;;;;;;;7.75;1.40;;;6.60;99.90;;;;;;5039796;28;20037;-74
2022/04/09 07:37:54;;;;;;;5.95;1.40;;;6.60;99.90;;;;;;5031638;28;20094;-75
2022/04/09 07:40:21;;;;;;;6.75;1.33;;;6.50;99.90;;;;;;5040173;28;20045;-72
2022/04/09 07:42:47;;;;;;;7.20;1.95;;;6.50;99.90;;;;;;5013253;28;20585;-72
2022/04/09 07:45:14;;;;;;;6.57;1.70;;;6.50;99.90;;;;;;5018422;28;20037;-75
2022/04/09 07:47:41;;;;;;;4.40;1.33;;;6.60;99.90;;;;;;5041252;28;20570;-74
2022/04/09 07:50:10;;;;;;;4.40;1.33;;;6.60;99.90;;;;;;5038268;28;20099;-72
2022/04/09 07:52:37;;;;;;;6.93;1.50;;;6.60;99.90;;;;;;5044107;28;20128;-73
2022/04/09 07:55:03;;;;;;;8.63;1.80;;;6.60;99.90;;;;;;5030337;28;20094;-73
2022/04/09 07:57:29;;;;;;;12.55;1.85;;;6.60;99.90;;;;;;5039635;28;20457;-72
2022/04/09 07:59:57;;;;;;;6.47;1.75;;;6.60;99.90;;;;;;5051211;28;20041;-72
2022/04/09 08:02:23;;;;;;;12.82;1.83;;;6.70;99.90;;;;;;5038308;28;20036;-72
2022/04/09 08:04:49;;;;;;;7.88;1.50;;;6.90;99.90;;;;;;5038935;28;20058;-72
2022/04/09 08:07:15;;;;;;;8.35;1.42;;;7.00;99.90;;;;;;5040376;28;20037;-72
2022/04/09 08:09:41;;;;;;;5.03;1.10;;;7.10;99.90;;;;;;5036420;28;20098;-74
2022/04/09 08:12:07;;;;;;;9.43;1.30;;;7.20;99.90;;;;;;5016547;28;20085;-74
2022/04/09 08:14:33;;;;;;;4.22;1.45;;;7.30;99.90;;;;;;5015109;28;20045;-72
2022/04/09 08:16:59;;;;;;;6.63;1.25;;;7.50;99.90;;;;;;5050384;28;20037;-72
2022/04/09 08:19:25;;;;;;;5.70;1.27;;;7.60;99.90;;;;;;5057132;28;20051;-71
2022/04/09 08:21:52;;;;;;;6.65;1.63;;;7.70;99.90;;;;;;5024880;28;20484;-71
2022/04/09 08:24:17;;;;;;;6.30;1.38;;;7.60;99.90;;;;;;5017583;28;20045;-72
2022/04/09 08:26:43;;;;;;;7.03;1.40;;;7.70;99.90;;;;;;5017869;28;20041;-72
2022/04/09 08:29:09;;;;;;;7.43;1.45;;;8.00;99.90;;;;;;5050308;28;20091;-72
2022/04/09 08:31:35;;;;;;;6.82;1.40;;;8.10;99.90;;;;;;5050604;28;20187;-72
2022/04/09 08:34:01;;;;;;;6.07;1.48;;;8.20;99.90;;;;;;5052107;28;20555;-72
2022/04/09 08:36:26;;;;;;;8.52;1.50;;;8.20;99.90;;;;;;5037233;28;20045;-72
2022/04/09 08:38:52;;;;;;;6.53;1.60;;;8.70;99.90;;;;;;5036665;28;20041;-72
2022/04/09 08:41:20;;;;;;;6.13;1.23;;;9.60;99.90;;;;;;5020706;28;20037;-72
2022/04/09 08:43:45;;;;;;;6.32;1.40;;;9.70;99.90;;;;;;5037035;28;20045;-72
2022/04/09 08:46:11;;;;;;;7.43;1.50;;;9.50;99.90;;;;;;5035409;28;20391;-72
2022/04/09 08:48:38;;;;;;;10.48;1.70;;;9.50;99.90;;;;;;5016932;28;20040;-71
2022/04/09 08:51:03;;;;;;;6.70;1.77;;;9.10;99.90;;;;;;5050338;28;20056;-72
2022/04/09 08:53:29;;;;;;;7.30;1.77;;;8.60;99.90;;;;;;5017090;28;20120;-72
2022/04/09 08:55:54;;;;;;;8.70;1.80;;;8.00;99.90;;;;;;5050161;28;20045;-72
2022/04/09 08:58:20;;;;;;;5.97;1.65;;;7.40;99.90;;;;;;5016678;28;20468;-71
2022/04/09 09:00:46;;;;;;;6.97;1.80;;;7.10;99.90;;;;;;5045235;28;20045;-71
2022/04/09 09:03:14;;;;;;;7.20;2.45;;;6.80;99.90;;;;;;5034642;28;20040;-71
2022/04/09 09:05:42;;;;;;;7.35;2.35;;;6.70;99.90;;;;;;5016835;28;20044;-71
2022/04/09 09:08:09;;;;;;;8.65;2.33;;;7.00;99.90;;;;;;5016739;28;20041;-72
2022/04/09 09:10:35;;;;;;;7.18;1.42;;;7.80;99.90;;;;;;5016713;28;20053;-72
2022/04/09 09:13:07;;;;;;;5.82;1.02;;;8.70;99.90;;;;;;5016671;28;20084;-72
2022/04/09 09:15:52;;;;;;;5.05;1.08;;;9.50;99.90;;;;;;5038210;28;20064;-72
2022/04/09 09:18:26;;;;;;;6.85;1.48;;;10.20;99.90;;;;;;5045267;28;20033;-72
2022/04/09 09:21:00;;;;;;;7.47;1.20;;;10.70;99.90;;;;;;5038029;28;20067;-72
2022/04/09 09:23:35;;;;;;;5.90;1.10;;;11.00;99.90;;;;;;5053126;28;20118;-72
2022/04/09 09:26:02;;;;;;;6.03;1.13;;;11.50;99.90;;;;;;5048720;28;20033;-73
2022/04/09 09:28:31;;;;;;;5.25;1.52;;;11.90;99.90;;;;;;5037212;28;20037;-73
2022/04/09 09:30:57;;;;;;;6.53;1.33;;;12.10;99.90;;;;;;5050602;28;20033;-74
2022/04/09 09:33:24;;;;;;;7.20;1.48;;;12.50;99.90;;;;;;5056030;28;20514;-73
2022/04/09 09:35:51;;;;;;;4.45;1.50;;;12.70;99.90;;;;;;5050915;28;20045;-73
2022/04/09 09:38:36;;;;;;;7.53;1.88;;;12.80;99.90;;;;;;5112637;22;20044;-80
2022/04/09 09:41:28;;;;;;;7.40;1.92;;;12.40;99.90;;;;;;5053108;28;20123;-79
2022/04/09 09:44:12;;;;;;;6.10;1.42;;;11.10;99.90;;;;;;5043156;28;20040;-81
2022/04/09 09:46:51;;;;;;;8.35;1.65;;;10.10;99.90;;;;;;5043851;28;20129;-80
2022/04/09 09:49:47;;;;;;;8.25;1.80;;;9.80;99.90;;;;;;5039124;28;20040;-80
2022/04/09 09:52:39;;;;;;;6.70;1.63;;;10.30;99.90;;;;;;5022446;28;20037;-79
2022/04/09 09:55:29;;;;;;;7.88;2.05;;;11.00;99.90;;;;;;5052577;28;20049;-80
2022/04/09 09:58:23;;;;;;;8.63;2.55;;;11.60;99.90;;;;;;5042893;28;20154;-79
2022/04/09 10:01:20;;;;;;;6.38;2.10;;;11.60;99.90;;;;;;5049205;28;20416;-80
2022/04/09 10:04:11;;;;;;;11.00;1.92;;;11.60;99.90;;;;;;5022859;28;20123;-80
2022/04/09 10:07:20;;;;;;;10.63;2.47;;;11.30;99.90;;;;;;5007395;28;20542;-80
2022/04/09 10:10:26;;;;;;;5.57;1.30;;;11.30;99.90;;;;;;5011643;28;20037;-80
2022/04/09 10:13:20;;;;;;;;;;;;;;;;;;;;;
2022/04/09 10:16:21;;;;;;;5.25;1.33;;;11.80;99.90;;;;;;5006051;28;20048;-80
2022/04/09 10:19:18;;;;;;;8.35;1.88;;;12.10;99.90;;;;;;5018057;28;20068;-80
2022/04/09 10:25:31;;;;;;;3.50;0.90;;;12.40;99.90;;;;;;4996983;28;20096;-80
2022/04/09 10:28:08;;;;;;;5.55;1.23;;;11.90;99.90;;;;;;5024162;28;20040;-81
2022/04/09 10:30:44;;;;;;;8.15;1.90;;;10.90;99.90;;;;;;5031269;28;20040;-81
2022/04/09 10:33:54;;;;;;;5.53;1.15;;;10.10;99.90;;;;;;5026906;28;20094;-79
2022/04/09 10:36:45;;;;;;;5.82;1.38;;;9.40;99.90;;;;;;5029494;28;20054;-80
2022/04/09 10:39:45;;;;;;;9.25;1.98;;;8.80;99.90;;;;;;5021955;28;20029;-81
2022/04/09 10:42:47;;;;;;;8.10;1.80;;;8.80;99.90;;;;;;5019064;28;20049;-81
2022/04/09 10:45:16;;;;;;;5.80;1.50;;;9.70;99.90;;;;;;5036746;28;20043;-80
2022/04/09 10:48:16;;;;;;;7.50;2.08;;;10.40;99.90;;;;;;5035501;28;20047;-80
2022/04/09 10:51:48;;;;;;;9.38;2.08;;;11.00;99.90;;;;;;5023241;28;20032;-80
2022/04/09 10:55:26;;;;;;;4.15;1.15;;;11.70;99.90;;;;;;5030988;28;20094;-79
2022/04/09 10:58:12;;;;;;;2.45;0.90;;;12.10;99.90;;;;;;5028679;28;20123;-79
2022/04/09 11:00:46;;;;;;;4.07;1.35;;;12.40;99.90;;;;;;5017641;28;20112;-78
2022/04/09 11:03:33;;;;;;;5.22;1.10;;;12.80;99.90;;;;;;5022463;28;20037;-83
2022/04/09 11:06:56;;;;;;;4.95;1.33;;;13.20;99.90;;;;;;5038710;28;20116;-79
2022/04/09 11:09:22;;;;;;;6.60;1.20;;;13.60;99.90;;;;;;5019786;28;20087;-80
2022/04/09 11:12:14;;;;;;;4.55;1.35;;;13.10;99.90;;;;;;5016335;28;20037;-81
2022/04/09 11:14:59;;;;;;;4.47;1.20;;;12.50;99.90;;;;;;5015498;28;20045;-80
2022/04/09 11:17:29;;;;;;;4.03;0.95;;;11.70;99.90;;;;;;5038853;28;20041;-81
2022/04/09 11:20:12;;;;;;;6.65;1.20;;;11.30;99.90;;;;;;5037374;28;20558;-81
2022/04/09 11:22:43;;;;;;;4.45;1.10;;;11.30;99.90;;;;;;5017309;28;20044;-79
2022/04/09 11:25:29;;;;;;;7.18;1.02;;;11.30;99.90;;;;;;5021153;28;20072;-82
2022/04/09 11:28:19;;;;;;;4.03;0.90;;;10.90;99.90;;;;;;5043095;28;20057;-82
2022/04/09 11:31:09;;;;;;;3.23;0.80;;;10.10;99.90;;;;;;5014218;28;20099;-80
2022/04/09 11:33:58;;;;;;;4.30;0.93;;;9.50;99.90;;;;;;5015701;28;20087;-80
2022/04/09 11:36:25;;;;;;;4.47;1.00;;;9.00;99.90;;;;;;5021279;28;20386;-78
2022/04/09 11:39:00;;;;;;;1.05;0.50;;;8.60;99.90;;;;;;5022535;28;20033;-79
2022/04/09 11:41:32;;;;;;;1.63;0.45;;;8.40;99.90;;;;;;5033598;28;20045;-78
2022/04/09 11:44:01;;;;;;;1.25;0.40;;;8.20;99.90;;;;;;5009949;28;20172;-78
2022/04/09 11:46:45;;;;;;;3.03;0.57;;;7.80;99.90;;;;;;5018296;28;20045;-77
2022/04/09 11:49:18;;;;;;;0.88;0.40;;;7.50;99.90;;;;;;5008182;28;20043;-77
2022/04/09 11:51:59;;;;;;;1.67;0.75;;;7.60;99.90;;;;;;5021260;28;20071;-76
2022/04/09 11:54:40;;;;;;;1.20;0.50;;;7.90;99.90;;;;;;5020667;28;20096;-80
2022/04/09 11:57:16;;;;;;;3.03;0.80;;;7.80;99.90;;;;;;5024883;28;20045;-77
2022/04/09 12:00:00;;;;;;;5.53;1.02;;;7.60;99.90;;;;;;5017606;28;20519;-78
2022/04/09 12:02:39;;;;;;;3.47;0.80;;;7.30;99.90;;;;;;5025065;28;20063;-78
2022/04/09 12:05:17;;;;;;;6.07;0.98;;;7.00;99.90;;;;;;5013143;28;20048;-78
2022/04/09 12:07:46;;;;;;;3.45;0.90;;;6.70;99.90;;;;;;5025022;28;20045;-76
2022/04/09 12:10:56;;;;;;;8.20;1.05;;;6.60;99.90;;;;;;5043741;28;20045;-79
2022/04/09 12:13:42;;;;;;;4.93;0.93;;;6.40;99.90;;;;;;5025895;28;20517;-78
2022/04/09 12:16:10;;;;;;;4.72;1.20;;;6.30;99.90;;;;;;4965497;28;20035;-78
2022/04/09 12:18:40;;;;;;;4.05;1.25;;;6.40;99.90;;;;;;5001575;28;20069;-77
2022/04/09 12:21:26;;;;;;;6.35;1.58;;;6.50;99.90;;;;;;4986074;28;20061;-78
2022/04/09 12:24:02;;;;;;;;;;;7.30;99.90;;;;;;4980127;28;20104;-78
2022/04/09 12:26:29;;;;;;;6.00;1.73;;;8.70;99.90;;;;;;4996405;28;19923;-79
2022/04/09 12:29:26;;;;;;;8.43;2.08;;;9.80;99.90;;;;;;4980995;28;20100;-79
2022/04/09 12:32:29;;;;;;;3.13;0.80;;;9.60;99.90;;;;;;4981943;28;20053;-79
2022/04/09 12:35:34;;;;;;;4.97;1.23;;;8.60;99.90;;;;;;4984255;28;20061;-78
2022/04/09 12:38:33;;;;;;;5.10;1.00;;;7.70;99.90;;;;;;4993123;28;20501;-78
2022/04/09 12:41:07;;;;;;;4.35;1.33;;;7.00;99.90;;;;;;4965213;28;20035;-79
2022/04/09 12:43:52;;;;;;;6.63;1.02;;;6.60;99.90;;;;;;4980619;28;20034;-79
2022/04/09 12:46:26;;;;;;;3.40;0.80;;;7.00;99.90;;;;;;4984969;28;20052;-78
2022/04/09 12:48:53;;;;;;;6.68;1.27;;;7.50;99.90;;;;;;4987104;28;20068;-76
2022/04/09 12:51:30;;;;;;;5.30;1.20;;;7.50;99.90;;;;;;4976954;28;20042;-78
2022/04/09 12:53:56;;;;;;;7.82;1.77;;;8.40;99.90;;;;;;4978527;28;20396;-78
2022/04/09 12:56:25;;;;;;;7.10;1.20;;;9.70;99.90;;;;;;4976871;28;20048;-78
2022/04/09 12:58:54;;;;;;;5.65;1.25;;;10.90;99.90;;;;;;4990272;28;20042;-78
2022/04/09 13:01:21;;;;;;;3.67;1.02;;;11.70;99.90;;;;;;4992201;28;20062;-78
2022/04/09 13:03:49;;;;;;;9.48;1.45;;;12.20;99.90;;;;;;4967038;28;20045;-78
2022/04/09 13:06:15;;;;;;;3.85;0.90;;;12.30;99.90;;;;;;4996640;28;20040;-78
2022/04/09 13:08:47;;;;;;;5.63;1.17;;;12.90;99.90;;;;;;4956731;28;20046;-77
2022/04/09 13:11:15;;;;;;;4.15;1.13;;;12.60;99.90;;;;;;4982024;28;20444;-78
2022/04/09 13:13:43;;;;;;;6.03;1.23;;;12.30;99.90;;;;;;4988306;28;20510;-78
2022/04/09 13:16:14;;;;;;;6.50;1.10;;;12.40;99.90;;;;;;4983579;28;20076;-77
2022/04/09 13:18:45;;;;;;;4.97;1.35;;;12.10;99.90;;;;;;4997564;28;20488;-78
2022/04/09 13:21:14;;;;;;;4.65;1.10;;;11.50;99.90;;;;;;4988197;28;20516;-78
2022/04/09 13:23:48;;;;;;;3.90;0.90;;;10.80;99.90;;;;;;5007705;28;20040;-77
2022/04/09 13:26:23;;;;;;;4.63;1.30;;;10.10;99.90;;;;;;4995410;28;20515;-78
2022/04/09 13:28:52;;;;;;;4.43;1.17;;;9.70;99.90;;;;;;4983828;28;20405;-77